sensor_id;sensor_type;location;lat;lon;timestamp;temperature;humidity
5358;DHT22;2702;51.014;7.170;2022-07-23T00:01:30;17.40;99.90
5358;DHT22;2702;51.014;7.170;2022-07-23T00:03:56;17.40;99.90
5358;DHT22;2702;51.014;7.170;2022-07-23T00:06:23;17.40;99.90
5358;DHT22;2702;51.014;7.170;2022-07-23T00:08:50;17.40;99.90
5358;DHT22;2702;51.014;7.170;2022-07-23T00:11:16;17.60;99.90
5358;DHT22;2702;51.014;7.170;2022-07-23T00:13:42;17.70;99.90
5358;DHT22;2702;51.014;7.170;2022-07-23T00:16:09;17.70;99.90
5358;DHT22;2702;51.014;7.170;2022-07-23T00:18:35;17.70;99.90
5358;DHT22;2702;51.014;7.170;2022-07-23T00:21:00;17.80;99.90
5358;DHT22;2702;51.014;7.170;2022-07-23T00:23:26;17.80;99.90
5358;DHT22;2702;51.014;7.170;2022-07-23T00:25:54;17.80;99.90
5358;DHT22;2702;51.014;7.170;2022-07-23T00:28:21;17.70;99.90
5358;DHT22;2702;51.014;7.170;2022-07-23T00:30:47;17.80;99.90
5358;DHT22;2702;51.014;7.170;2022-07-23T00:33:12;17.80;99.90
5358;DHT22;2702;51.014;7.170;2022-07-23T00:35:40;17.80;99.90
5358;DHT22;2702;51.014;7.170;2022-07-23T00:38:08;17.70;99.90
5358;DHT22;2702;51.014;7.170;2022-07-23T00:40:38;17.60;99.90
5358;DHT22;2702;51.014;7.170;2022-07-23T00:43:04;17.50;99.90
5358;DHT22;2702;51.014;7.170;2022-07-23T00:45:31;17.40;99.90
5358;DHT22;2702;51.014;7.170;2022-07-23T00:47:57;17.30;99.90
5358;DHT22;2702;51.014;7.170;2022-07-23T00:50:23;17.30;99.90
5358;DHT22;2702;51.014;7.170;2022-07-23T00:52:49;17.30;99.90
5358;DHT22;2702;51.014;7.170;2022-07-23T00:55:16;17.20;99.90
5358;DHT22;2702;51.014;7.170;2022-07-23T00:57:42;17.20;99.90
5358;DHT22;2702;51.014;7.170;2022-07-23T01:00:11;17.20;99.90
5358;DHT22;2702;51.014;7.170;2022-07-23T01:02:39;17.20;99.90
5358;DHT22;2702;51.014;7.170;2022-07-23T01:05:05;17.20;99.90
5358;DHT22;2702;51.014;7.170;2022-07-23T01:07:31;17.20;99.90
5358;DHT22;2702;51.014;7.170;2022-07-23T01:09:59;17.20;99.90
5358;DHT22;2702;51.014;7.170;2022-07-23T01:12:25;17.30;99.90
5358;DHT22;2702;51.014;7.170;2022-07-23T01:14:56;17.40;99.90
5358;DHT22;2702;51.014;7.170;2022-07-23T01:17:22;17.30;99.90
5358;DHT22;2702;51.014;7.170;2022-07-23T01:19:48;17.30;99.90
5358;DHT22;2702;51.014;7.170;2022-07-23T01:22:15;17.20;99.90
5358;DHT22;2702;51.014;7.170;2022-07-23T01:24:43;17.10;99.90
5358;DHT22;2702;51.014;7.170;2022-07-23T01:27:09;17.10;99.90
5358;DHT22;2702;51.014;7.170;2022-07-23T01:29:35;17.20;99.90
5358;DHT22;2702;51.014;7.170;2022-07-23T01:32:01;17.10;99.90
5358;DHT22;2702;51.014;7.170;2022-07-23T01:34:27;17.10;99.90
5358;DHT22;2702;51.014;7.170;2022-07-23T01:36:52;17.10;99.90
5358;DHT22;2702;51.014;7.170;2022-07-23T01:39:18;17.10;99.90
5358;DHT22;2702;51.014;7.170;2022-07-23T01:41:44;17.00;99.90
5358;DHT22;2702;51.014;7.170;2022-07-23T01:44:10;16.90;99.90
5358;DHT22;2702;51.014;7.170;2022-07-23T01:46:37;17.00;99.90
5358;DHT22;2702;51.014;7.170;2022-07-23T01:49:03;17.10;99.90
5358;DHT22;2702;51.014;7.170;2022-07-23T01:51:29;17.00;99.90
5358;DHT22;2702;51.014;7.170;2022-07-23T01:53:55;16.90;99.90
5358;DHT22;2702;51.014;7.170;2022-07-23T01:56:21;17.00;99.90
5358;DHT22;2702;51.014;7.170;2022-07-23T01:58:48;17.10;99.90
5358;DHT22;2702;51.014;7.170;2022-07-23T02:01:14;17.10;99.90
5358;DHT22;2702;51.014;7.170;2022-07-23T02:03:40;17.20;99.90
5358;DHT22;2702;51.014;7.170;2022-07-23T02:06:06;17.30;99.90
5358;DHT22;2702;51.014;7.170;2022-07-23T02:08:32;17.30;99.90
5358;DHT22;2702;51.014;7.170;2022-07-23T02:10:58;17.40;99.90
5358;DHT22;2702;51.014;7.170;2022-07-23T02:13:24;17.40;99.90
5358;DHT22;2702;51.014;7.170;2022-07-23T02:15:50;17.50;99.90
5358;DHT22;2702;51.014;7.170;2022-07-23T02:18:16;17.50;99.90
5358;DHT22;2702;51.014;7.170;2022-07-23T02:20:42;17.20;99.90
5358;DHT22;2702;51.014;7.170;2022-07-23T02:23:10;17.10;99.90
5358;DHT22;2702;51.014;7.170;2022-07-23T02:25:36;17.10;99.90
5358;DHT22;2702;51.014;7.170;2022-07-23T02:28:02;17.10;99.90
5358;DHT22;2702;51.014;7.170;2022-07-23T02:30:28;17.20;99.90
5358;DHT22;2702;51.014;7.170;2022-07-23T02:32:56;17.30;99.90
5358;DHT22;2702;51.014;7.170;2022-07-23T02:35:21;17.20;99.90
5358;DHT22;2702;51.014;7.170;2022-07-23T02:37:47;17.10;99.90
5358;DHT22;2702;51.014;7.170;2022-07-23T02:40:13;17.00;99.90
5358;DHT22;2702;51.014;7.170;2022-07-23T02:42:39;16.90;99.90
5358;DHT22;2702;51.014;7.170;2022-07-23T02:45:05;17.00;99.90
5358;DHT22;2702;51.014;7.170;2022-07-23T02:47:31;16.90;99.90
5358;DHT22;2702;51.014;7.170;2022-07-23T02:49:57;16.70;99.90
5358;DHT22;2702;51.014;7.170;2022-07-23T02:52:23;16.70;99.90
5358;DHT22;2702;51.014;7.170;2022-07-23T02:54:49;16.70;99.90
5358;DHT22;2702;51.014;7.170;2022-07-23T02:57:15;16.70;99.90
5358;DHT22;2702;51.014;7.170;2022-07-23T02:59:41;16.70;99.90
5358;DHT22;2702;51.014;7.170;2022-07-23T03:02:07;16.80;99.90
5358;DHT22;2702;51.014;7.170;2022-07-23T03:04:33;16.70;99.90
5358;DHT22;2702;51.014;7.170;2022-07-23T03:06:59;16.60;99.90
5358;DHT22;2702;51.014;7.170;2022-07-23T03:09:25;16.60;99.90
5358;DHT22;2702;51.014;7.170;2022-07-23T03:11:51;16.50;99.90
5358;DHT22;2702;51.014;7.170;2022-07-23T03:14:17;16.50;99.90
5358;DHT22;2702;51.014;7.170;2022-07-23T03:16:43;16.30;99.90
5358;DHT22;2702;51.014;7.170;2022-07-23T03:19:09;16.40;99.90
5358;DHT22;2702;51.014;7.170;2022-07-23T03:21:34;16.40;99.90
5358;DHT22;2702;51.014;7.170;2022-07-23T03:24:04;16.40;99.90
5358;DHT22;2702;51.014;7.170;2022-07-23T03:26:30;16.30;99.90
5358;DHT22;2702;51.014;7.170;2022-07-23T03:28:56;16.20;99.90
5358;DHT22;2702;51.014;7.170;2022-07-23T03:31:22;16.10;99.90
5358;DHT22;2702;51.014;7.170;2022-07-23T03:33:47;16.10;99.90
5358;DHT22;2702;51.014;7.170;2022-07-23T03:36:16;16.10;99.90
5358;DHT22;2702;51.014;7.170;2022-07-23T03:38:41;16.00;99.90
5358;DHT22;2702;51.014;7.170;2022-07-23T03:41:07;16.00;99.90
5358;DHT22;2702;51.014;7.170;2022-07-23T03:43:33;16.10;99.90
5358;DHT22;2702;51.014;7.170;2022-07-23T03:45:59;16.10;99.90
5358;DHT22;2702;51.014;7.170;2022-07-23T03:48:25;16.00;99.90
5358;DHT22;2702;51.014;7.170;2022-07-23T03:50:51;16.00;99.90
5358;DHT22;2702;51.014;7.170;2022-07-23T03:53:17;16.00;99.90
5358;DHT22;2702;51.014;7.170;2022-07-23T03:55:42;16.00;99.90
5358;DHT22;2702;51.014;7.170;2022-07-23T03:58:08;16.00;99.90
5358;DHT22;2702;51.014;7.170;2022-07-23T04:00:34;16.10;99.90
5358;DHT22;2702;51.014;7.170;2022-07-23T04:03:00;16.20;99.90
5358;DHT22;2702;51.014;7.170;2022-07-23T04:05:26;16.20;99.90
5358;DHT22;2702;51.014;7.170;2022-07-23T04:07:52;16.20;99.90
5358;DHT22;2702;51.014;7.170;2022-07-23T04:10:18;16.20;99.90
5358;DHT22;2702;51.014;7.170;2022-07-23T04:12:44;16.20;99.90
5358;DHT22;2702;51.014;7.170;2022-07-23T04:15:10;16.20;99.90
5358;DHT22;2702;51.014;7.170;2022-07-23T04:17:36;16.20;99.90
5358;DHT22;2702;51.014;7.170;2022-07-23T04:20:02;16.10;99.90
5358;DHT22;2702;51.014;7.170;2022-07-23T04:22:29;16.00;99.90
5358;DHT22;2702;51.014;7.170;2022-07-23T04:24:55;16.00;99.90
5358;DHT22;2702;51.014;7.170;2022-07-23T04:27:21;15.90;99.90
5358;DHT22;2702;51.014;7.170;2022-07-23T04:29:47;15.80;99.90
5358;DHT22;2702;51.014;7.170;2022-07-23T04:32:13;15.80;99.90
5358;DHT22;2702;51.014;7.170;2022-07-23T04:34:39;15.80;99.90
5358;DHT22;2702;51.014;7.170;2022-07-23T04:37:05;15.80;99.90
5358;DHT22;2702;51.014;7.170;2022-07-23T04:39:30;15.80;99.90
5358;DHT22;2702;51.014;7.170;2022-07-23T04:41:57;15.80;99.90
5358;DHT22;2702;51.014;7.170;2022-07-23T04:44:23;15.80;99.90
5358;DHT22;2702;51.014;7.170;2022-07-23T04:46:48;15.90;99.90
5358;DHT22;2702;51.014;7.170;2022-07-23T04:49:14;15.90;99.90
5358;DHT22;2702;51.014;7.170;2022-07-23T04:51:40;15.90;99.90
5358;DHT22;2702;51.014;7.170;2022-07-23T04:54:06;15.80;99.90
5358;DHT22;2702;51.014;7.170;2022-07-23T04:56:32;15.80;99.90
5358;DHT22;2702;51.014;7.170;2022-07-23T04:58:58;15.60;99.90
5358;DHT22;2702;51.014;7.170;2022-07-23T05:01:24;15.70;99.90
5358;DHT22;2702;51.014;7.170;2022-07-23T05:03:50;15.70;99.90
5358;DHT22;2702;51.014;7.170;2022-07-23T05:06:16;15.70;99.90
5358;DHT22;2702;51.014;7.170;2022-07-23T05:08:42;15.60;99.90
5358;DHT22;2702;51.014;7.170;2022-07-23T05:11:08;15.60;99.90
5358;DHT22;2702;51.014;7.170;2022-07-23T05:13:33;15.60;99.90
5358;DHT22;2702;51.014;7.170;2022-07-23T05:15:59;15.60;99.90
5358;DHT22;2702;51.014;7.170;2022-07-23T05:18:25;15.70;99.90
5358;DHT22;2702;51.014;7.170;2022-07-23T05:20:51;15.60;99.90
5358;DHT22;2702;51.014;7.170;2022-07-23T05:23:17;15.60;99.90
5358;DHT22;2702;51.014;7.170;2022-07-23T05:25:43;15.70;99.90
5358;DHT22;2702;51.014;7.170;2022-07-23T05:28:09;15.60;99.90
5358;DHT22;2702;51.014;7.170;2022-07-23T05:30:35;15.60;99.90
5358;DHT22;2702;51.014;7.170;2022-07-23T05:33:01;15.70;99.90
5358;DHT22;2702;51.014;7.170;2022-07-23T05:35:27;15.70;99.90
5358;DHT22;2702;51.014;7.170;2022-07-23T05:37:53;15.70;99.90
5358;DHT22;2702;51.014;7.170;2022-07-23T05:40:19;15.70;99.90
5358;DHT22;2702;51.014;7.170;2022-07-23T05:42:44;15.90;99.90
5358;DHT22;2702;51.014;7.170;2022-07-23T05:45:10;15.80;99.90
5358;DHT22;2702;51.014;7.170;2022-07-23T05:47:54;15.70;99.90
5358;DHT22;2702;51.014;7.170;2022-07-23T05:50:20;15.80;99.90
5358;DHT22;2702;51.014;7.170;2022-07-23T05:52:46;15.80;99.90
5358;DHT22;2702;51.014;7.170;2022-07-23T05:55:13;15.80;99.90
5358;DHT22;2702;51.014;7.170;2022-07-23T05:57:41;15.80;99.90
5358;DHT22;2702;51.014;7.170;2022-07-23T06:00:08;16.00;99.90
5358;DHT22;2702;51.014;7.170;2022-07-23T06:02:35;15.90;99.90
5358;DHT22;2702;51.014;7.170;2022-07-23T06:05:01;16.00;99.90
5358;DHT22;2702;51.014;7.170;2022-07-23T06:07:26;16.00;99.90
5358;DHT22;2702;51.014;7.170;2022-07-23T06:09:52;16.00;99.90
5358;DHT22;2702;51.014;7.170;2022-07-23T06:12:18;16.10;99.90
5358;DHT22;2702;51.014;7.170;2022-07-23T06:14:44;16.20;99.90
5358;DHT22;2702;51.014;7.170;2022-07-23T06:17:10;16.30;99.90
5358;DHT22;2702;51.014;7.170;2022-07-23T06:19:36;16.30;99.90
5358;DHT22;2702;51.014;7.170;2022-07-23T06:22:02;16.30;99.90
5358;DHT22;2702;51.014;7.170;2022-07-23T06:24:28;16.40;99.90
5358;DHT22;2702;51.014;7.170;2022-07-23T06:26:54;16.50;99.90
5358;DHT22;2702;51.014;7.170;2022-07-23T06:29:20;16.60;99.90
5358;DHT22;2702;51.014;7.170;2022-07-23T06:31:46;16.80;99.90
5358;DHT22;2702;51.014;7.170;2022-07-23T06:34:12;16.90;99.90
5358;DHT22;2702;51.014;7.170;2022-07-23T06:36:38;16.90;99.90
5358;DHT22;2702;51.014;7.170;2022-07-23T06:39:04;16.90;99.90
5358;DHT22;2702;51.014;7.170;2022-07-23T06:41:30;17.00;99.90
5358;DHT22;2702;51.014;7.170;2022-07-23T06:43:55;17.20;99.90
5358;DHT22;2702;51.014;7.170;2022-07-23T06:46:21;17.30;99.90
5358;DHT22;2702;51.014;7.170;2022-07-23T06:48:47;17.40;99.90
5358;DHT22;2702;51.014;7.170;2022-07-23T06:51:13;17.40;99.90
5358;DHT22;2702;51.014;7.170;2022-07-23T06:53:39;17.50;99.90
5358;DHT22;2702;51.014;7.170;2022-07-23T06:56:05;17.50;99.90
5358;DHT22;2702;51.014;7.170;2022-07-23T06:58:31;17.70;99.90
5358;DHT22;2702;51.014;7.170;2022-07-23T07:00:57;17.70;99.90
5358;DHT22;2702;51.014;7.170;2022-07-23T07:03:22;17.80;99.90
5358;DHT22;2702;51.014;7.170;2022-07-23T07:05:48;18.10;99.90
5358;DHT22;2702;51.014;7.170;2022-07-23T07:08:18;18.10;99.90
5358;DHT22;2702;51.014;7.170;2022-07-23T07:10:44;18.10;99.90
5358;DHT22;2702;51.014;7.170;2022-07-23T07:13:11;18.30;99.90
5358;DHT22;2702;51.014;7.170;2022-07-23T07:15:37;18.50;99.90
5358;DHT22;2702;51.014;7.170;2022-07-23T07:18:03;18.60;99.90
5358;DHT22;2702;51.014;7.170;2022-07-23T07:20:29;18.60;99.90
5358;DHT22;2702;51.014;7.170;2022-07-23T07:22:54;18.60;99.90
5358;DHT22;2702;51.014;7.170;2022-07-23T07:25:20;18.70;99.90
5358;DHT22;2702;51.014;7.170;2022-07-23T07:27:46;18.90;99.90
5358;DHT22;2702;51.014;7.170;2022-07-23T07:30:12;19.10;99.90
5358;DHT22;2702;51.014;7.170;2022-07-23T07:32:39;19.20;99.90
5358;DHT22;2702;51.014;7.170;2022-07-23T07:35:06;19.10;99.90
5358;DHT22;2702;51.014;7.170;2022-07-23T07:37:33;19.50;99.90
5358;DHT22;2702;51.014;7.170;2022-07-23T07:39:59;19.60;99.90
5358;DHT22;2702;51.014;7.170;2022-07-23T07:42:24;19.60;99.90
5358;DHT22;2702;51.014;7.170;2022-07-23T07:44:50;19.50;99.90
5358;DHT22;2702;51.014;7.170;2022-07-23T07:47:16;19.50;99.90
5358;DHT22;2702;51.014;7.170;2022-07-23T07:49:43;19.50;99.90
5358;DHT22;2702;51.014;7.170;2022-07-23T07:52:09;19.60;99.90
5358;DHT22;2702;51.014;7.170;2022-07-23T07:54:36;19.70;99.90
5358;DHT22;2702;51.014;7.170;2022-07-23T07:57:02;19.80;99.90
5358;DHT22;2702;51.014;7.170;2022-07-23T07:59:28;19.70;99.90
5358;DHT22;2702;51.014;7.170;2022-07-23T08:01:54;19.70;99.90
5358;DHT22;2702;51.014;7.170;2022-07-23T08:04:19;19.70;99.90
5358;DHT22;2702;51.014;7.170;2022-07-23T08:06:45;19.80;99.90
5358;DHT22;2702;51.014;7.170;2022-07-23T08:09:11;19.90;99.90
5358;DHT22;2702;51.014;7.170;2022-07-23T08:11:37;19.90;99.90
5358;DHT22;2702;51.014;7.170;2022-07-23T08:14:03;19.90;99.90
5358;DHT22;2702;51.014;7.170;2022-07-23T08:16:29;19.80;99.90
5358;DHT22;2702;51.014;7.170;2022-07-23T08:18:55;20.00;99.90
5358;DHT22;2702;51.014;7.170;2022-07-23T08:21:21;20.10;99.90
5358;DHT22;2702;51.014;7.170;2022-07-23T08:23:47;20.40;99.90
5358;DHT22;2702;51.014;7.170;2022-07-23T08:26:13;20.20;99.90
5358;DHT22;2702;51.014;7.170;2022-07-23T08:28:39;20.40;99.90
5358;DHT22;2702;51.014;7.170;2022-07-23T08:31:05;20.60;99.90
5358;DHT22;2702;51.014;7.170;2022-07-23T08:33:31;20.80;99.90
5358;DHT22;2702;51.014;7.170;2022-07-23T08:35:57;21.00;99.90
5358;DHT22;2702;51.014;7.170;2022-07-23T08:38:24;21.10;99.90
5358;DHT22;2702;51.014;7.170;2022-07-23T08:40:53;21.50;99.90
5358;DHT22;2702;51.014;7.170;2022-07-23T08:43:21;21.40;99.90
5358;DHT22;2702;51.014;7.170;2022-07-23T08:45:52;21.40;99.90
5358;DHT22;2702;51.014;7.170;2022-07-23T08:48:23;21.00;99.90
5358;DHT22;2702;51.014;7.170;2022-07-23T08:50:53;21.00;99.90
5358;DHT22;2702;51.014;7.170;2022-07-23T08:53:23;20.70;99.90
5358;DHT22;2702;51.014;7.170;2022-07-23T08:55:51;20.70;99.90
5358;DHT22;2702;51.014;7.170;2022-07-23T08:58:18;20.90;99.90
5358;DHT22;2702;51.014;7.170;2022-07-23T09:00:46;20.90;99.90
5358;DHT22;2702;51.014;7.170;2022-07-23T09:03:23;21.20;99.90
5358;DHT22;2702;51.014;7.170;2022-07-23T09:05:53;21.40;99.90
5358;DHT22;2702;51.014;7.170;2022-07-23T09:08:22;21.70;99.90
5358;DHT22;2702;51.014;7.170;2022-07-23T09:10:59;21.80;99.90
5358;DHT22;2702;51.014;7.170;2022-07-23T09:16:13;21.70;99.90
5358;DHT22;2702;51.014;7.170;2022-07-23T09:18:43;21.90;99.90
5358;DHT22;2702;51.014;7.170;2022-07-23T09:21:12;21.80;99.90
5358;DHT22;2702;51.014;7.170;2022-07-23T09:23:40;21.60;99.90
5358;DHT22;2702;51.014;7.170;2022-07-23T09:26:21;21.00;99.90
5358;DHT22;2702;51.014;7.170;2022-07-23T09:31:33;21.30;99.90
5358;DHT22;2702;51.014;7.170;2022-07-23T09:34:15;21.00;99.90
5358;DHT22;2702;51.014;7.170;2022-07-23T09:36:41;21.20;99.90
5358;DHT22;2702;51.014;7.170;2022-07-23T09:39:08;21.60;99.90
5358;DHT22;2702;51.014;7.170;2022-07-23T09:41:40;21.70;99.90
5358;DHT22;2702;51.014;7.170;2022-07-23T09:44:16;21.60;99.90
5358;DHT22;2702;51.014;7.170;2022-07-23T09:46:45;21.80;99.90
5358;DHT22;2702;51.014;7.170;2022-07-23T09:49:22;21.90;99.90
5358;DHT22;2702;51.014;7.170;2022-07-23T09:51:54;22.00;99.90
5358;DHT22;2702;51.014;7.170;2022-07-23T09:54:29;21.90;99.90
5358;DHT22;2702;51.014;7.170;2022-07-23T09:56:57;21.90;99.90
5358;DHT22;2702;51.014;7.170;2022-07-23T09:59:26;22.10;99.90
5358;DHT22;2702;51.014;7.170;2022-07-23T10:01:54;22.30;99.90
5358;DHT22;2702;51.014;7.170;2022-07-23T10:04:23;22.70;99.90
5358;DHT22;2702;51.014;7.170;2022-07-23T10:06:53;23.00;99.90
5358;DHT22;2702;51.014;7.170;2022-07-23T10:09:24;22.70;99.90
5358;DHT22;2702;51.014;7.170;2022-07-23T10:11:54;22.80;99.90
5358;DHT22;2702;51.014;7.170;2022-07-23T10:14:22;23.10;99.90
5358;DHT22;2702;51.014;7.170;2022-07-23T10:16:48;23.00;99.90
5358;DHT22;2702;51.014;7.170;2022-07-23T10:19:14;22.70;99.90
5358;DHT22;2702;51.014;7.170;2022-07-23T10:21:46;22.60;99.90
5358;DHT22;2702;51.014;7.170;2022-07-23T10:33:28;22.90;99.90
5358;DHT22;2702;51.014;7.170;2022-07-23T10:38:54;23.30;99.90
5358;DHT22;2702;51.014;7.170;2022-07-23T10:41:37;23.60;99.90
5358;DHT22;2702;51.014;7.170;2022-07-23T10:44:15;23.70;99.90
5358;DHT22;2702;51.014;7.170;2022-07-23T10:49:39;23.80;99.90
5358;DHT22;2702;51.014;7.170;2022-07-23T10:52:18;23.90;99.90
5358;DHT22;2702;51.014;7.170;2022-07-23T10:57:16;23.80;99.90
5358;DHT22;2702;51.014;7.170;2022-07-23T11:02:37;24.10;99.90
5358;DHT22;2702;51.014;7.170;2022-07-23T11:05:08;24.20;99.90
5358;DHT22;2702;51.014;7.170;2022-07-23T11:08:10;24.40;99.90
5358;DHT22;2702;51.014;7.170;2022-07-23T11:10:35;24.50;99.90
5358;DHT22;2702;51.014;7.170;2022-07-23T11:16:13;24.80;99.90
5358;DHT22;2702;51.014;7.170;2022-07-23T11:24:08;24.70;99.90
5358;DHT22;2702;51.014;7.170;2022-07-23T11:32:05;24.60;99.90
5358;DHT22;2702;51.014;7.170;2022-07-23T11:34:42;24.40;99.90
5358;DHT22;2702;51.014;7.170;2022-07-23T11:37:10;24.10;99.90
5358;DHT22;2702;51.014;7.170;2022-07-23T11:39:38;24.50;99.90
5358;DHT22;2702;51.014;7.170;2022-07-23T11:42:05;24.40;99.90
5358;DHT22;2702;51.014;7.170;2022-07-23T11:44:37;24.70;99.90
5358;DHT22;2702;51.014;7.170;2022-07-23T11:47:08;24.90;99.90
5358;DHT22;2702;51.014;7.170;2022-07-23T11:49:36;24.40;99.90
5358;DHT22;2702;51.014;7.170;2022-07-23T11:52:13;24.30;99.90
5358;DHT22;2702;51.014;7.170;2022-07-23T11:54:53;24.40;99.90
5358;DHT22;2702;51.014;7.170;2022-07-23T11:57:24;24.40;99.90
5358;DHT22;2702;51.014;7.170;2022-07-23T11:59:54;24.80;99.90
5358;DHT22;2702;51.014;7.170;2022-07-23T12:02:22;25.20;99.90
5358;DHT22;2702;51.014;7.170;2022-07-23T12:04:51;25.30;99.90
5358;DHT22;2702;51.014;7.170;2022-07-23T12:09:53;25.20;99.90
5358;DHT22;2702;51.014;7.170;2022-07-23T12:12:19;25.20;99.90
5358;DHT22;2702;51.014;7.170;2022-07-23T12:14:56;24.80;99.90
5358;DHT22;2702;51.014;7.170;2022-07-23T12:17:28;24.50;99.90
5358;DHT22;2702;51.014;7.170;2022-07-23T12:19:57;24.40;99.90
5358;DHT22;2702;51.014;7.170;2022-07-23T12:22:24;24.70;99.90
5358;DHT22;2702;51.014;7.170;2022-07-23T12:24:58;25.20;99.90
5358;DHT22;2702;51.014;7.170;2022-07-23T12:27:26;25.30;99.90
5358;DHT22;2702;51.014;7.170;2022-07-23T12:29:52;25.40;99.90
5358;DHT22;2702;51.014;7.170;2022-07-23T12:32:28;25.10;99.90
5358;DHT22;2702;51.014;7.170;2022-07-23T12:35:08;24.80;99.90
5358;DHT22;2702;51.014;7.170;2022-07-23T12:37:37;24.50;99.90
5358;DHT22;2702;51.014;7.170;2022-07-23T12:40:43;25.00;99.90
5358;DHT22;2702;51.014;7.170;2022-07-23T12:43:19;25.50;99.90
5358;DHT22;2702;51.014;7.170;2022-07-23T12:50:50;25.50;99.90
5358;DHT22;2702;51.014;7.170;2022-07-23T12:53:21;25.80;99.90
5358;DHT22;2702;51.014;7.170;2022-07-23T12:55:48;26.00;99.90
5358;DHT22;2702;51.014;7.170;2022-07-23T12:58:17;26.10;99.90
5358;DHT22;2702;51.014;7.170;2022-07-23T13:00:55;26.10;99.90
5358;DHT22;2702;51.014;7.170;2022-07-23T13:03:30;25.90;99.90
5358;DHT22;2702;51.014;7.170;2022-07-23T13:05:57;26.10;99.90
5358;DHT22;2702;51.014;7.170;2022-07-23T13:08:25;25.60;99.90
5358;DHT22;2702;51.014;7.170;2022-07-23T13:10:51;25.30;99.90
5358;DHT22;2702;51.014;7.170;2022-07-23T13:13:20;25.70;99.90
5358;DHT22;2702;51.014;7.170;2022-07-23T13:15:47;25.80;99.90
5358;DHT22;2702;51.014;7.170;2022-07-23T13:18:13;25.70;99.90
5358;DHT22;2702;51.014;7.170;2022-07-23T13:20:39;25.60;99.90
5358;DHT22;2702;51.014;7.170;2022-07-23T13:23:06;26.10;99.90
5358;DHT22;2702;51.014;7.170;2022-07-23T13:25:33;26.40;99.90
5358;DHT22;2702;51.014;7.170;2022-07-23T13:27:59;26.20;99.90
5358;DHT22;2702;51.014;7.170;2022-07-23T13:30:25;26.60;99.90
5358;DHT22;2702;51.014;7.170;2022-07-23T13:32:51;26.60;99.90
5358;DHT22;2702;51.014;7.170;2022-07-23T13:35:17;26.20;99.90
5358;DHT22;2702;51.014;7.170;2022-07-23T13:37:43;25.90;99.90
5358;DHT22;2702;51.014;7.170;2022-07-23T13:40:10;25.90;99.90
5358;DHT22;2702;51.014;7.170;2022-07-23T13:42:37;25.60;99.90
5358;DHT22;2702;51.014;7.170;2022-07-23T13:45:05;25.40;99.90
5358;DHT22;2702;51.014;7.170;2022-07-23T13:47:31;25.50;99.90
5358;DHT22;2702;51.014;7.170;2022-07-23T13:49:57;25.70;99.90
5358;DHT22;2702;51.014;7.170;2022-07-23T13:52:23;25.80;99.90
5358;DHT22;2702;51.014;7.170;2022-07-23T13:54:50;26.10;99.90
5358;DHT22;2702;51.014;7.170;2022-07-23T13:57:16;26.10;99.90
5358;DHT22;2702;51.014;7.170;2022-07-23T13:59:42;25.70;99.90
5358;DHT22;2702;51.014;7.170;2022-07-23T14:02:09;25.70;99.90
5358;DHT22;2702;51.014;7.170;2022-07-23T14:04:35;25.50;99.90
5358;DHT22;2702;51.014;7.170;2022-07-23T14:07:01;25.50;99.90
5358;DHT22;2702;51.014;7.170;2022-07-23T14:09:27;25.80;99.90
5358;DHT22;2702;51.014;7.170;2022-07-23T14:11:53;25.80;99.90
5358;DHT22;2702;51.014;7.170;2022-07-23T14:14:19;25.80;99.90
5358;DHT22;2702;51.014;7.170;2022-07-23T14:16:45;26.00;99.90
5358;DHT22;2702;51.014;7.170;2022-07-23T14:19:11;26.00;99.90
5358;DHT22;2702;51.014;7.170;2022-07-23T14:21:37;26.10;99.90
5358;DHT22;2702;51.014;7.170;2022-07-23T14:24:03;26.20;99.90
5358;DHT22;2702;51.014;7.170;2022-07-23T14:26:29;26.10;99.90
5358;DHT22;2702;51.014;7.170;2022-07-23T14:28:55;25.90;99.90
5358;DHT22;2702;51.014;7.170;2022-07-23T14:31:22;26.10;99.90
5358;DHT22;2702;51.014;7.170;2022-07-23T14:33:48;26.50;99.90
5358;DHT22;2702;51.014;7.170;2022-07-23T14:36:15;26.60;99.90
5358;DHT22;2702;51.014;7.170;2022-07-23T14:38:41;26.20;99.90
5358;DHT22;2702;51.014;7.170;2022-07-23T14:41:07;26.20;99.90
5358;DHT22;2702;51.014;7.170;2022-07-23T14:43:34;26.40;99.90
5358;DHT22;2702;51.014;7.170;2022-07-23T14:46:00;26.80;99.90
5358;DHT22;2702;51.014;7.170;2022-07-23T14:48:26;26.70;99.90
5358;DHT22;2702;51.014;7.170;2022-07-23T14:50:52;26.80;99.90
5358;DHT22;2702;51.014;7.170;2022-07-23T14:53:18;26.30;99.90
5358;DHT22;2702;51.014;7.170;2022-07-23T14:55:43;26.60;99.90
5358;DHT22;2702;51.014;7.170;2022-07-23T14:58:09;26.80;99.90
5358;DHT22;2702;51.014;7.170;2022-07-23T15:00:35;26.70;99.90
5358;DHT22;2702;51.014;7.170;2022-07-23T15:03:01;26.20;99.90
5358;DHT22;2702;51.014;7.170;2022-07-23T15:05:27;26.50;99.90
5358;DHT22;2702;51.014;7.170;2022-07-23T15:07:54;26.80;99.90
5358;DHT22;2702;51.014;7.170;2022-07-23T15:10:20;27.00;99.90
5358;DHT22;2702;51.014;7.170;2022-07-23T15:12:46;27.30;99.90
5358;DHT22;2702;51.014;7.170;2022-07-23T15:15:13;26.90;99.90
5358;DHT22;2702;51.014;7.170;2022-07-23T15:17:39;26.80;99.90
5358;DHT22;2702;51.014;7.170;2022-07-23T15:20:05;26.60;99.90
5358;DHT22;2702;51.014;7.170;2022-07-23T15:22:32;26.90;99.90
5358;DHT22;2702;51.014;7.170;2022-07-23T15:24:58;27.10;99.90
5358;DHT22;2702;51.014;7.170;2022-07-23T15:27:24;27.40;99.90
5358;DHT22;2702;51.014;7.170;2022-07-23T15:29:50;27.40;99.90
5358;DHT22;2702;51.014;7.170;2022-07-23T15:32:16;27.20;99.90
5358;DHT22;2702;51.014;7.170;2022-07-23T15:34:41;27.20;99.90
5358;DHT22;2702;51.014;7.170;2022-07-23T15:37:07;26.80;99.90
5358;DHT22;2702;51.014;7.170;2022-07-23T15:39:33;26.10;99.90
5358;DHT22;2702;51.014;7.170;2022-07-23T15:42:00;26.30;99.90
5358;DHT22;2702;51.014;7.170;2022-07-23T15:44:26;26.30;99.90
5358;DHT22;2702;51.014;7.170;2022-07-23T15:46:52;26.50;99.90
5358;DHT22;2702;51.014;7.170;2022-07-23T15:49:19;26.50;99.90
5358;DHT22;2702;51.014;7.170;2022-07-23T15:51:45;26.30;99.90
5358;DHT22;2702;51.014;7.170;2022-07-23T15:54:11;26.20;99.90
5358;DHT22;2702;51.014;7.170;2022-07-23T15:56:37;26.30;99.90
5358;DHT22;2702;51.014;7.170;2022-07-23T15:59:02;26.60;99.90
5358;DHT22;2702;51.014;7.170;2022-07-23T16:01:28;26.50;99.90
5358;DHT22;2702;51.014;7.170;2022-07-23T16:03:55;26.50;99.90
5358;DHT22;2702;51.014;7.170;2022-07-23T16:06:23;26.50;99.90
5358;DHT22;2702;51.014;7.170;2022-07-23T16:08:50;26.70;99.90
5358;DHT22;2702;51.014;7.170;2022-07-23T16:11:16;26.70;99.90
5358;DHT22;2702;51.014;7.170;2022-07-23T16:13:42;26.70;99.90
5358;DHT22;2702;51.014;7.170;2022-07-23T16:16:08;26.70;99.90
5358;DHT22;2702;51.014;7.170;2022-07-23T16:18:34;26.80;99.90
5358;DHT22;2702;51.014;7.170;2022-07-23T16:21:00;26.50;99.90
5358;DHT22;2702;51.014;7.170;2022-07-23T16:23:26;26.40;99.90
5358;DHT22;2702;51.014;7.170;2022-07-23T16:25:52;26.60;99.90
5358;DHT22;2702;51.014;7.170;2022-07-23T16:28:18;26.50;99.90
5358;DHT22;2702;51.014;7.170;2022-07-23T16:30:44;26.70;99.90
5358;DHT22;2702;51.014;7.170;2022-07-23T16:33:10;26.80;99.90
5358;DHT22;2702;51.014;7.170;2022-07-23T16:35:36;26.40;99.90
5358;DHT22;2702;51.014;7.170;2022-07-23T16:38:03;26.00;99.90
5358;DHT22;2702;51.014;7.170;2022-07-23T16:40:29;25.90;99.90
5358;DHT22;2702;51.014;7.170;2022-07-23T16:42:56;25.70;99.90
5358;DHT22;2702;51.014;7.170;2022-07-23T16:45:22;25.80;99.90
5358;DHT22;2702;51.014;7.170;2022-07-23T16:47:48;25.80;99.90
5358;DHT22;2702;51.014;7.170;2022-07-23T16:50:15;26.00;99.90